GMTN  Saniat Rmel Airport

Add Bookmark

Morocco

Status IATA
Operational TTU
Latitude Longitude
35° 35' 39" N 5° 19' 12" W
35.594299 -5.320020
Local (DST + 1) UTC (GMT 0)
Oct 22, 2014 05:46 Oct 22, 2014 04:46
Sunrise-Sunset Local UTC
Begin Civil Twilight 07:07 06:07
Sunrise 07:32 06:32
Sunset 06:38 17:38
End Civil Twilight 07:04 18:04

Current Weather

METAR Observed
GMTN 220400Z AUTO 32003KT 280V350 0400NDV R24/0450V0600N /// 18/17 Q1023 Wed, Oct 22, 2014 @ 04:00 UTC
(46 Minutes ago)
Wind Visibility Conditions
320° at 3 knots (6 kph) 1000 meters
  • No significant weather
Temperatures Readings Precipitation
Current Temp 18°C (64°F)
Dewpoint 17°C (63°F)
Humidity 94%
Altimeter 30.21"Hg
Sea Level Pressure 1023mb
Field Elevation 32.81'
None Recorded

Additional weather within a 92.6km radius of GMTN

Map ICAO Location
GMTT 55.9km W (285°)
LXGB 61.9km N (360°)

24 Hour Weather History

Loading
-

24 Hour Weather Graphs

Loading
-

CheckWX.com is intended as a tool to help pilots better visualize weather data. It is not intended as a substitute for an official weather briefing obtained from a Flight Service Station. CheckWX.com does not meet the FAA requirements for an official pre-flight weather briefing. Therefore, it's important that pilots still call and obtain an official FSS pre-flight weather briefing.